Auburn, IN

1:54 AM EST on March 01, 2015 (GMT -0500)
East Memorial Park | Change Station
CLOSE
Current Station
Personal Weather Station
Location: Auburn, IN
Elevation: 866 ft
Nearby Weather Stations

Elev 866 ft 41.36 °N, 85.06 °W | Updated 22 seconds ago

Snow
Snow
16.1 °F
Feels Like 16 °F
N
2.0
Wind Variable Wind from ESE
Gusts 4.0 mph

Today
High -- | Low -- °F
--% Chance of Precip.
Yesterday
High -- | Low -- °F
Precip. -- in
7:15 AM 6:30 PM
Waxing Gibbous, 83% visible
Pressure 30.45 in
Visibility 2.0 miles
Clouds Overcast 1000 ft
Windchill 16 °F
Dew Point 13 °F
Humidity 88%
Rainfall 0.00 in
Snow Depth Not available.
UV 0 out of 12
Pollen .30 out of 12
Air Quality Not available.
Flu Activity Not available.
METAR KGWB 010640Z AUTO 08003KT 2SM -SN OVC010 M08/M10 A3045 RMK AO2

More Conditions Fewer Conditions

Pressure 30.45 in
Visibility 2.0 miles
Clouds Overcast 1000 ft
Windchill 16 °F
Dew Point 13 °F
Humidity 88%
Rainfall 0.00 in
Snow Depth Not available.
UV 0 out of 12
Pollen .30 out of 12
Air Quality Not available.
Flu Activity Not available.
METAR KGWB 010640Z AUTO 08003KT 2SM -SN OVC010 M08/M10 A3045 RMK AO2

More Conditions Fewer Conditions

10-Day Weather Forecast

Almanac

Astronomy

Mar. 01, 2015 Rise Set
Actual Time
Civil Twilight
Nautical Twilight
Astronomical Twilight
Moon
Length of Visible Light
Length of Day
Tomorrow will be .
, % of the Moon is Illuminated

Today's Extremes

State Highs State Lows

Community

WunderPhotos

Upload Photos

1,801,345 photos uploaded!

WunderBlogs® & News

Nearby

Air Quality

  Air Quality AQ Index Pollutant
Not available.

Snow Depth

Station Depth Elevation

Earthquake Activity

City Distance Mag. Time & Date
Minimum magnitude displayed is 2.5.

Coastal Water Temperatures

Place Temperature

Nearby Weather Stations